METAR Data
IDs: Format: Raw Decoded Include TAF

Data at: 0755 UTC 01 Aug 2021

LIMU 010655Z 24008KT CAVOK 21/21 Q1004 RMK SCT FEW080 SCT200 QUK 2 QUL 1 S VIS MAR 20 KM VIS MIN 9999